Time;durP1;ratioP1;P1;durP2;ratioP2;P2;SDS_P1;SDS_P2;PMS_P1;PMS_P2;Temp;Humidity;BMP_temperature;BMP_pressure;BME280_temperature;BME280_humidity;BME280_pressure;Samples;Min_cycle;Max_cycle;Signal;HPM_P1;HPM_P2
2023/07/14 00:00:41;;;;;;;4.37;4.00;;;19.20;90.30;;;21.86;60.84;101682.56;5035112;28;20624;-59
2023/07/14 00:03:16;;;;;;;5.63;4.20;;;19.20;90.80;;;21.91;60.27;101685.41;5036699;28;20264;-59
2023/07/14 00:05:44;;;;;;;5.63;5.13;;;19.30;90.60;;;21.97;59.82;101684.47;5036863;28;20631;-55
2023/07/14 00:08:18;;;;;;;6.23;5.07;;;19.20;90.40;;;21.90;59.47;101686.44;5037702;28;20233;-57
2023/07/14 00:10:45;;;;;;;4.90;4.50;;;19.30;90.10;;;21.81;59.53;101679.72;5036191;28;20206;-59
2023/07/14 00:13:15;;;;;;;4.50;4.10;;;19.30;90.00;;;21.78;60.02;101674.78;5036508;28;20651;-55
2023/07/14 00:15:44;;;;;;;6.67;4.63;;;19.20;90.20;;;21.79;60.41;101671.91;5045942;28;20225;-57
2023/07/14 00:18:18;;;;;;;5.13;4.63;;;19.20;90.40;;;21.80;59.82;101672.72;5056186;28;20249;-58
2023/07/14 00:20:46;;;;;;;6.10;5.10;;;19.20;90.20;;;21.80;60.18;101672.72;5055049;28;20735;-59
2023/07/14 00:23:15;;;;;;;6.57;5.13;;;19.20;90.10;;;21.75;59.22;101670.69;5055440;28;20221;-58
2023/07/14 00:25:42;;;;;;;5.10;4.60;;;19.20;89.60;;;21.68;59.03;101669.97;5056116;28;20205;-57
2023/07/14 00:28:17;;;;;;;5.13;4.50;;;19.20;89.40;;;21.64;59.49;101666.09;5056051;28;20205;-58
2023/07/14 00:30:46;;;;;;;4.87;4.30;;;19.10;89.30;;;21.62;59.61;101667.38;5055703;28;20209;-59
2023/07/14 00:33:17;;;;;;;6.27;5.67;;;19.10;89.70;;;21.58;59.58;101669.69;5055882;28;20198;-57
2023/07/14 00:35:47;;;;;;;5.87;5.33;;;19.00;89.80;;;21.52;59.39;101660.69;5055787;28;20178;-57
2023/07/14 00:38:14;;;;;;;5.00;4.23;;;19.00;89.50;;;21.47;59.51;101660.53;5054430;28;20194;-57
2023/07/14 00:40:45;;;;;;;5.70;4.63;;;18.90;89.40;;;21.45;59.26;101659.09;5055435;28;20220;-58
2023/07/14 00:43:18;;;;;;;6.33;5.73;;;18.90;89.70;;;21.39;59.45;101663.50;5055373;28;20236;-58
2023/07/14 00:45:49;;;;;;;6.60;5.90;;;18.90;89.80;;;21.34;59.28;101658.00;5055799;28;20174;-59
2023/07/14 00:48:21;;;;;;;6.43;5.83;;;18.80;89.60;;;21.27;59.88;101667.97;5055946;28;20573;-57
2023/07/14 00:50:56;;;;;;;6.50;5.57;;;18.80;89.50;;;21.24;59.56;101663.03;5051812;28;20253;-58
2023/07/14 00:53:32;;;;;;;5.73;5.13;;;18.70;89.50;;;21.21;60.05;101658.13;5035608;28;20178;-59
2023/07/14 00:56:28;;;;;;;5.50;4.87;;;18.70;89.90;;;21.22;60.50;101654.41;5045737;28;20813;-55
2023/07/14 00:58:55;;;;;;;4.73;4.33;;;18.70;90.30;;;21.32;60.38;101654.69;5055078;28;20213;-58
2023/07/14 01:01:25;;;;;;;5.77;5.27;;;18.70;90.40;;;21.35;59.75;101648.91;5055205;28;20233;-57
2023/07/14 01:03:55;;;;;;;5.47;4.97;;;18.70;90.20;;;21.40;60.14;101650.91;5055610;28;20677;-59
2023/07/14 01:06:28;;;;;;;6.33;4.40;;;18.80;90.50;;;21.43;59.60;101651.31;5055761;28;20183;-59
2023/07/14 01:09:00;;;;;;;6.90;5.37;;;18.80;90.20;;;21.49;59.60;101654.94;5055311;28;20244;-58
2023/07/14 01:11:34;;;;;;;6.90;5.97;;;18.80;90.20;;;21.44;58.80;101647.56;5049748;28;20183;-58
2023/07/14 01:14:06;;;;;;;7.23;6.10;;;18.80;89.40;;;21.36;59.29;101649.72;5035384;28;20274;-59
2023/07/14 01:16:38;;;;;;;7.77;6.70;;;18.80;89.10;;;21.28;58.99;101648.16;5051605;28;20237;-57
2023/07/14 01:19:20;;;;;;;6.60;5.63;;;18.80;89.00;;;21.20;59.52;101645.78;5054663;28;20209;-57
2023/07/14 01:21:53;;;;;;;7.47;6.77;;;18.70;89.10;;;21.19;59.57;101654.84;5055240;28;20529;-59
2023/07/14 01:24:31;;;;;;;7.43;6.60;;;18.70;89.50;;;21.16;59.16;101649.94;5055020;28;20220;-57
2023/07/14 01:27:05;;;;;;;6.77;6.10;;;18.70;89.50;;;21.11;59.38;101644.41;5054860;28;20603;-59
2023/07/14 01:29:34;;;;;;;7.53;6.80;;;18.60;89.40;;;21.04;59.45;101645.53;5051180;28;20218;-57
2023/07/14 01:32:15;;;;;;;8.63;7.73;;;18.50;89.20;;;20.96;59.48;101641.25;5053963;28;20204;-58
2023/07/14 01:34:42;;;;;;;7.80;6.97;;;18.50;89.50;;;20.93;60.06;101644.38;5052941;28;20340;-58
2023/07/14 01:37:09;;;;;;;7.33;6.07;;;18.40;89.40;;;20.89;60.13;101643.19;5053574;28;20693;-58
2023/07/14 01:39:36;;;;;;;7.17;5.47;;;18.40;89.50;;;20.91;60.24;101639.25;5054353;28;20636;-58
2023/07/14 01:42:05;;;;;;;6.10;5.47;;;18.40;90.10;;;20.98;60.32;101633.81;5054653;28;20241;-57
2023/07/14 01:44:33;;;;;;;8.43;5.93;;;18.40;90.30;;;21.07;60.10;101640.56;5053789;28;20193;-56
2023/07/14 01:47:02;;;;;;;8.27;6.20;;;18.40;90.50;;;21.15;59.86;101637.59;5051408;28;20309;-56
2023/07/14 01:49:38;;;;;;;8.80;6.53;;;18.40;90.30;;;21.18;59.65;101639.81;5034278;28;20218;-59
2023/07/14 01:52:12;;;;;;;7.50;6.23;;;18.50;90.20;;;21.21;59.31;101641.22;5034424;28;20178;-58
2023/07/14 01:54:44;;;;;;;7.23;6.50;;;18.50;90.10;;;21.21;59.62;101644.75;5034514;28;20277;-57
2023/07/14 01:57:18;;;;;;;8.30;7.50;;;18.50;89.80;;;21.14;58.92;101646.66;5034653;28;20183;-59
2023/07/14 01:59:52;;;;;;;7.53;6.70;;;18.50;89.20;;;21.05;58.85;101648.00;5034176;28;20214;-57
2023/07/14 02:02:26;;;;;;;8.60;7.80;;;18.50;89.00;;;20.95;59.12;101642.28;5035819;28;20257;-58
2023/07/14 02:04:53;;;;;;;10.53;7.67;;;18.50;89.00;;;20.85;59.71;101644.63;5034645;28;20186;-58
2023/07/14 02:07:21;;;;;;;9.17;7.33;;;18.40;88.90;;;20.79;59.88;101637.50;5033178;28;20679;-59
2023/07/14 02:09:49;;;;;;;8.37;7.57;;;18.30;89.10;;;20.70;60.13;101639.66;5033809;28;20718;-56
2023/07/14 02:12:26;;;;;;;10.07;7.77;;;18.20;89.40;;;20.63;59.91;101640.72;5034150;28;20681;-58
2023/07/14 02:15:00;;;;;;;8.73;7.43;;;18.20;89.70;;;20.60;59.85;101639.31;5035725;28;20202;-59
2023/07/14 02:17:31;;;;;;;7.47;6.77;;;18.10;89.90;;;20.56;59.72;101642.63;5052731;28;20205;-59
2023/07/14 02:20:03;;;;;;;9.30;7.47;;;18.10;89.80;;;20.55;60.45;101641.00;5053933;28;20213;-57
2023/07/14 02:22:32;;;;;;;8.47;7.53;;;18.00;90.00;;;20.51;60.07;101645.16;5053934;28;20559;-58
2023/07/14 02:25:02;;;;;;;10.67;8.47;;;18.00;90.10;;;20.46;60.37;101643.13;5043818;28;20624;-58
2023/07/14 02:27:30;;;;;;;8.90;7.87;;;17.90;90.10;;;20.42;60.37;101641.09;5033586;28;20640;-59
2023/07/14 02:29:59;;;;;;;8.13;7.20;;;17.90;90.30;;;20.41;60.44;101644.81;5033295;28;20249;-59
2023/07/14 02:32:32;;;;;;;10.10;8.07;;;17.90;90.40;;;20.36;60.82;101648.13;5041696;28;20257;-58
2023/07/14 02:35:11;;;;;;;10.37;8.17;;;17.80;90.40;;;20.32;60.85;101651.44;5053973;28;20873;-56
2023/07/14 02:38:15;;;;;;;10.10;7.40;;;17.80;90.50;;;20.25;61.11;101656.84;5053965;28;20186;-57
2023/07/14 02:40:47;;;;;;;9.43;8.57;;;17.70;90.50;;;20.23;61.33;101654.38;5053233;28;20729;-57
2023/07/14 02:43:19;;;;;;;9.73;8.33;;;17.70;90.60;;;20.22;61.18;101655.44;5053471;28;20192;-57
2023/07/14 02:45:52;;;;;;;8.87;7.43;;;17.70;90.70;;;20.19;61.65;101647.78;5052945;28;20214;-57
2023/07/14 02:48:25;;;;;;;10.63;8.70;;;17.70;90.80;;;20.18;61.18;101648.81;5038793;28;20285;-56
2023/07/14 02:50:52;;;;;;;9.33;8.37;;;17.60;90.80;;;20.13;61.61;101651.31;5033058;28;20237;-58
2023/07/14 02:53:19;;;;;;;9.97;8.23;;;17.60;90.80;;;20.10;61.86;101643.75;5033473;28;20205;-55
2023/07/14 02:55:46;;;;;;;8.90;8.00;;;17.60;90.80;;;20.11;61.33;101639.22;5033666;28;20195;-57
2023/07/14 02:58:13;;;;;;;9.47;7.93;;;17.60;90.90;;;20.10;61.60;101643.75;5033808;28;20566;-58
2023/07/14 03:00:42;;;;;;;8.87;8.03;;;17.60;90.90;;;20.06;61.68;101642.50;5042751;28;20245;-57
2023/07/14 03:03:09;;;;;;;11.03;7.93;;;17.50;90.80;;;20.02;61.70;101641.31;5053385;28;20222;-59
2023/07/14 03:05:37;;;;;;;9.33;8.43;;;17.50;90.80;;;19.96;61.76;101642.19;5053139;28;20193;-58
2023/07/14 03:08:17;;;;;;;9.73;8.83;;;17.50;90.90;;;19.92;61.72;101646.28;5053602;28;20220;-58
2023/07/14 03:10:47;;;;;;;9.23;8.33;;;17.40;90.80;;;19.90;62.08;101637.66;5053250;28;20229;-59
2023/07/14 03:13:16;;;;;;;8.50;7.70;;;17.40;91.00;;;19.87;61.66;101643.44;5053458;28;20661;-59
2023/07/14 03:15:45;;;;;;;10.90;7.87;;;17.30;91.00;;;19.87;62.26;101642.63;5044576;28;20197;-57
2023/07/14 03:18:14;;;;;;;8.73;7.83;;;17.30;91.10;;;19.85;62.07;101640.16;5053547;28;20244;-59
2023/07/14 03:20:42;;;;;;;10.73;9.50;;;17.30;91.10;;;19.84;61.90;101638.53;5046941;28;20230;-59
2023/07/14 03:23:09;;;;;;;9.87;8.40;;;17.30;91.10;;;19.84;62.31;101637.72;5033493;28;20198;-58
2023/07/14 03:25:36;;;;;;;8.97;8.10;;;17.30;91.10;;;19.83;62.06;101626.19;5033184;28;20198;-57
2023/07/14 03:28:03;;;;;;;10.60;9.20;;;17.30;91.20;;;19.85;62.38;101634.03;5033659;28;20699;-60
2023/07/14 03:30:39;;;;;;;10.90;9.87;;;17.30;91.30;;;19.81;62.54;101633.59;5032783;28;20215;-59
2023/07/14 03:33:08;;;;;;;11.00;9.50;;;17.30;91.30;;;19.80;62.67;101631.97;5033315;28;20178;-59
2023/07/14 03:35:35;;;;;;;10.30;8.83;;;17.30;91.30;;;19.83;62.53;101630.72;5033088;28;20277;-59
2023/07/14 03:38:03;;;;;;;11.27;10.10;;;17.20;91.30;;;19.84;62.76;101632.38;5033471;28;20599;-58
2023/07/14 03:40:30;;;;;;;9.83;8.87;;;17.30;91.50;;;19.86;62.53;101631.13;5047252;28;20218;-55
2023/07/14 03:42:58;;;;;;;9.37;7.90;;;17.30;91.40;;;19.90;62.41;101637.66;5051312;28;20229;-57
2023/07/14 03:45:25;;;;;;;8.97;8.13;;;17.30;91.50;;;19.95;62.31;101624.50;5052303;28;20182;-60
2023/07/14 03:47:52;;;;;;;11.60;10.40;;;17.30;91.60;;;19.99;61.83;101625.69;5047869;28;20210;-58
2023/07/14 03:50:20;;;;;;;12.20;9.33;;;17.30;91.40;;;20.04;61.76;101622.41;5032462;28;20614;-59
2023/07/14 03:52:47;;;;;;;10.70;9.17;;;17.40;91.30;;;20.06;61.60;101625.69;5032965;28;20241;-57
2023/07/14 03:55:15;;;;;;;12.10;10.13;;;17.40;91.30;;;20.06;61.80;101620.34;5032956;28;20655;-59
2023/07/14 03:57:42;;;;;;;10.60;9.60;;;17.40;91.20;;;20.07;61.93;101625.44;5053166;28;20527;-56
2023/07/14 04:00:28;;;;;;;11.40;9.70;;;17.40;91.30;;;20.06;61.93;101626.47;5056416;28;20229;-59
2023/07/14 04:02:56;;;;;;;11.73;10.63;;;17.40;91.20;;;20.03;62.03;101628.78;5056599;28;20297;-55
2023/07/14 04:05:25;;;;;;;11.47;10.23;;;17.40;91.20;;;19.98;61.84;101626.75;5056067;28;20615;-56
2023/07/14 04:07:53;;;;;;;12.73;11.53;;;17.40;91.20;;;19.95;61.75;101632.50;5055856;28;20186;-56
2023/07/14 04:10:20;;;;;;;11.17;10.07;;;17.40;91.30;;;19.91;62.41;101639.31;5051021;28;20272;-57
2023/07/14 04:12:48;;;;;;;11.80;10.60;;;17.40;91.30;;;19.90;62.27;101632.31;5036046;28;20273;-56
2023/07/14 04:15:16;;;;;;;13.70;11.73;;;17.40;91.30;;;19.90;62.02;101637.66;5042067;28;20217;-58
2023/07/14 04:17:43;;;;;;;11.07;10.00;;;17.30;91.40;;;19.92;62.30;101640.16;5043947;28;20630;-59
2023/07/14 04:20:11;;;;;;;11.70;10.27;;;17.30;91.40;;;19.95;61.89;101643.19;5035846;28;20225;-56
2023/07/14 04:22:39;;;;;;;12.67;11.23;;;17.30;91.50;;;19.96;62.06;101652.88;5035928;28;20593;-59
2023/07/14 04:25:07;;;;;;;13.57;11.47;;;17.30;91.60;;;19.97;62.04;101642.97;5036438;28;20622;-56
2023/07/14 04:27:36;;;;;;;10.23;9.13;;;17.30;91.60;;;19.98;62.23;101637.44;5035820;28;20183;-60
2023/07/14 04:30:04;;;;;;;13.87;10.90;;;17.40;91.70;;;20.07;62.63;101638.81;5035636;28;20218;-60
2023/07/14 04:32:31;;;;;;;12.93;11.60;;;17.40;91.80;;;20.11;61.87;101629.31;5035927;28;20218;-60
2023/07/14 04:34:59;;;;;;;11.80;10.60;;;17.40;91.60;;;20.11;61.72;101632.00;5036155;28;20218;-60
2023/07/14 04:37:26;;;;;;;17.23;12.23;;;17.50;91.50;;;20.16;61.89;101636.69;5035887;28;20206;-60
2023/07/14 04:39:54;;;;;;;11.37;10.17;;;17.50;91.50;;;20.22;61.88;101642.06;5052411;28;20604;-55
2023/07/14 04:42:21;;;;;;;12.10;10.90;;;17.50;91.50;;;20.28;61.47;101639.56;5056014;28;20259;-64
2023/07/14 04:44:48;;;;;;;13.30;11.97;;;17.60;91.50;;;20.31;61.70;101639.94;5055340;28;20206;-59
2023/07/14 04:47:15;;;;;;;13.50;12.13;;;17.60;91.40;;;20.31;61.84;101642.59;5055522;28;20194;-57
2023/07/14 04:49:43;;;;;;;15.33;11.97;;;17.60;91.30;;;20.32;61.57;101640.75;5055331;28;20213;-57
2023/07/14 04:52:10;;;;;;;13.67;12.30;;;17.60;91.20;;;20.33;61.71;101642.38;5053442;28;20280;-58
2023/07/14 04:54:37;;;;;;;15.60;12.00;;;17.60;91.20;;;20.36;61.28;101645.44;5035667;28;20236;-59
2023/07/14 04:57:05;;;;;;;11.30;10.17;;;17.60;91.60;;;20.37;61.25;101643.59;5035370;28;20280;-59
2023/07/14 04:59:34;;;;;;;15.40;13.80;;;17.70;91.30;;;20.39;61.31;101657.56;5035206;28;20299;-59
2023/07/14 05:02:03;;;;;;;15.03;13.43;;;17.70;91.30;;;20.33;61.60;101650.41;5035368;28;20233;-59
2023/07/14 05:04:30;;;;;;;14.63;13.13;;;17.70;91.20;;;20.32;61.69;101651.44;5035670;28;20221;-59
2023/07/14 05:06:57;;;;;;;12.80;11.60;;;17.70;91.30;;;20.32;61.63;101649.59;5035147;28;20198;-60
2023/07/14 05:09:25;;;;;;;12.83;11.63;;;17.70;91.30;;;20.40;62.22;101653.84;5033656;28;20759;-56
2023/07/14 05:11:52;;;;;;;15.53;14.03;;;17.70;91.50;;;20.43;61.96;101653.44;5035050;28;20722;-56
2023/07/14 05:14:20;;;;;;;14.00;12.70;;;17.70;91.40;;;20.40;61.62;101654.69;5049364;28;20204;-58
2023/07/14 05:16:47;;;;;;;15.10;12.83;;;17.80;91.40;;;20.40;62.21;101659.19;5054680;28;20277;-58
2023/07/14 05:19:14;;;;;;;18.03;14.47;;;17.80;91.40;;;20.39;62.20;101647.69;5054312;28;20216;-58
2023/07/14 05:21:42;;;;;;;16.70;15.00;;;17.80;91.40;;;20.33;61.89;101642.38;5053782;28;20674;-60
2023/07/14 05:24:09;;;;;;;15.83;14.23;;;17.70;91.50;;;20.33;62.18;101642.38;5054822;28;20243;-60
2023/07/14 05:26:36;;;;;;;16.50;14.83;;;17.80;91.60;;;20.32;62.51;101646.09;5055010;28;20218;-59
2023/07/14 05:29:05;;;;;;;15.03;13.50;;;17.70;91.60;;;20.35;62.30;101641.13;5053930;28;20282;-60
2023/07/14 05:31:33;;;;;;;15.97;14.30;;;17.80;91.70;;;20.42;62.66;101635.75;5054450;28;20244;-60
2023/07/14 05:34:01;;;;;;;14.03;12.57;;;17.80;91.80;;;20.48;62.21;101640.22;5054256;28;20267;-59
2023/07/14 05:36:28;;;;;;;16.20;14.60;;;17.80;91.80;;;20.49;62.58;101641.88;5034404;28;20203;-57
2023/07/14 05:38:55;;;;;;;16.40;14.80;;;17.90;91.80;;;20.52;62.79;101638.75;5035451;28;20642;-57
2023/07/14 05:41:22;;;;;;;16.83;15.20;;;17.90;91.80;;;20.52;62.78;101644.09;5054343;28;20679;-60
2023/07/14 05:43:49;;;;;;;16.43;14.80;;;17.90;91.80;;;20.55;62.94;101641.00;5045579;28;20209;-58
2023/07/14 05:46:16;;;;;;;15.23;13.70;;;17.90;91.80;;;20.61;62.28;101629.44;5034252;28;20759;-59
2023/07/14 05:48:45;;;;;;;16.40;14.77;;;18.00;91.90;;;20.65;62.77;101635.97;5035643;28;20201;-60
2023/07/14 05:51:13;;;;;;;16.40;14.70;;;18.00;91.90;;;20.60;63.08;101636.63;5054045;28;20617;-59
2023/07/14 05:53:40;;;;;;;17.10;15.17;;;18.10;91.90;;;20.68;63.12;101635.56;5053454;28;20272;-59
2023/07/14 05:56:07;;;;;;;14.40;13.00;;;18.10;92.00;;;20.74;63.01;101629.31;5054316;28;20273;-57
2023/07/14 05:58:34;;;;;;;15.73;14.27;;;18.10;91.90;;;20.82;62.70;101626.38;5054070;28;20220;-60
2023/07/14 06:01:00;;;;;;;14.23;12.83;;;18.20;92.00;;;20.97;62.34;101629.50;5054179;28;20273;-57
2023/07/14 06:03:28;;;;;;;17.13;15.43;;;18.30;92.10;;;21.09;61.98;101627.75;5042655;28;20678;-59
2023/07/14 06:05:57;;;;;;;16.20;14.70;;;18.30;92.00;;;;;;5033816;28;20195;-58
2023/07/14 06:08:24;;;;;;;18.43;16.47;;;18.40;91.70;;;21.08;62.15;101625.31;5033633;28;20194;-58
2023/07/14 06:10:51;;;;;;;20.27;16.33;;;18.40;91.60;;;21.07;62.25;101627.16;5050944;28;20303;-58
2023/07/14 06:13:19;;;;;;;16.20;14.40;;;18.50;91.60;;;21.15;62.41;101621.53;5053577;28;20217;-59
2023/07/14 06:15:48;;;;;;;15.83;14.23;;;18.50;91.70;;;21.27;61.58;101618.94;5053468;28;20228;-58
2023/07/14 06:18:17;;;;;;;19.10;14.80;;;18.60;91.70;;;21.33;61.97;101626.88;5052596;28;20216;-59
2023/07/14 06:20:44;;;;;;;15.63;13.93;;;18.70;91.70;;;21.43;61.92;101621.84;5052983;28;20213;-56
2023/07/14 06:23:13;;;;;;;15.77;14.03;;;18.70;91.70;;;21.50;61.08;101619.88;5053253;28;20281;-58
2023/07/14 06:25:41;;;;;;;16.97;14.10;;;18.80;91.40;;;21.56;60.57;101618.97;5053074;28;20217;-59
2023/07/14 06:28:09;;;;;;;16.90;14.47;;;18.90;91.20;;;21.62;60.93;101605.72;5053393;28;20265;-59
2023/07/14 06:30:36;;;;;;;15.03;12.57;;;18.90;91.30;;;21.75;60.92;101610.94;5049214;28;20238;-58
2023/07/14 06:33:03;;;;;;;15.37;13.50;;;19.00;91.40;;;21.91;60.79;101608.47;5033642;28;20273;-61
2023/07/14 06:35:33;;;;;;;15.13;12.57;;;19.10;91.40;;;22.04;60.33;101607.44;5033097;28;20655;-61
2023/07/14 06:38:00;;;;;;;15.20;13.37;;;19.20;91.30;;;22.18;59.66;101614.25;5032977;28;20202;-60
2023/07/14 06:40:29;;;;;;;15.43;13.83;;;19.30;91.10;;;22.33;59.48;101609.28;5047108;28;20222;-57
2023/07/14 06:43:00;;;;;;;14.57;13.07;;;19.40;91.00;;;22.51;59.30;101614.53;5051677;28;20221;-59
2023/07/14 06:45:27;;;;;;;15.60;13.30;;;19.60;91.00;;;22.69;58.85;101609.13;5031436;28;20190;-58
2023/07/14 06:47:55;;;;;;;13.27;11.87;;;19.70;90.70;;;22.78;58.42;101613.09;5032865;28;20225;-58
2023/07/14 06:50:22;;;;;;;15.87;14.10;;;19.80;90.40;;;22.82;57.91;101611.56;5032540;28;20218;-59
2023/07/14 06:52:52;;;;;;;16.70;12.57;;;19.90;90.00;;;22.87;58.00;101611.69;5033224;28;20225;-57
2023/07/14 06:55:19;;;;;;;14.77;13.27;;;20.00;90.00;;;22.96;57.82;101604.09;5033458;28;20228;-59
2023/07/14 06:57:47;;;;;;;13.40;12.00;;;20.10;89.60;;;23.04;57.81;101602.91;5033053;28;20655;-59
2023/07/14 07:00:16;;;;;;;13.73;12.33;;;20.20;89.80;;;23.12;57.65;101603.38;5032722;28;20293;-59
2023/07/14 07:02:43;;;;;;;12.93;11.73;;;20.20;89.70;;;23.25;57.71;101605.00;5033052;28;20306;-59
2023/07/14 07:05:10;;;;;;;13.60;10.80;;;20.30;89.60;;;23.41;57.56;101597.06;5034888;28;20186;-58
2023/07/14 07:07:38;;;;;;;14.93;12.23;;;20.40;89.70;;;23.57;56.79;101598.16;5052693;28;20572;-57
2023/07/14 07:10:07;;;;;;;14.47;12.90;;;20.50;89.20;;;23.65;56.19;101591.59;5052152;28;20213;-58
2023/07/14 07:12:34;;;;;;;21.33;17.00;;;20.60;88.20;;;23.74;56.01;101588.28;5050921;28;20194;-58
2023/07/14 07:15:04;;;;;;;13.93;11.37;;;20.70;88.50;;;23.92;55.83;101595.31;5036535;28;20556;-61
2023/07/14 07:17:31;;;;;;;11.33;10.23;;;20.80;88.60;;;24.12;55.94;101591.16;5052937;28;20210;-60
2023/07/14 07:19:58;;;;;;;12.30;10.80;;;21.00;88.80;;;24.34;55.29;101585.06;5052430;28;20217;-58
2023/07/14 07:22:26;;;;;;;12.43;11.20;;;21.10;88.30;;;24.48;54.58;101591.75;5052785;28;20689;-57
2023/07/14 07:24:53;;;;;;;14.00;11.83;;;21.30;87.60;;;24.52;53.93;101592.88;5052843;28;20186;-58
2023/07/14 07:27:20;;;;;;;13.03;11.27;;;21.40;86.50;;;24.61;54.54;101602.16;5051794;28;20280;-58
2023/07/14 07:29:47;;;;;;;13.80;11.90;;;21.50;86.60;;;24.67;53.70;101595.81;5052169;28;20222;-57
2023/07/14 07:32:15;;;;;;;11.37;10.17;;;21.60;86.00;;;24.66;52.72;101594.16;5055590;28;20281;-60
2023/07/14 07:34:43;;;;;;;11.57;10.37;;;21.60;83.70;;;24.71;53.01;101583.47;5056371;28;20190;-57
2023/07/14 07:37:10;;;;;;;12.40;10.37;;;21.70;83.80;;;24.74;52.27;101585.69;5056160;28;20182;-58
2023/07/14 07:39:38;;;;;;;10.63;9.70;;;21.70;82.30;;;24.61;51.55;101577.94;5051665;28;20222;-58
2023/07/14 07:42:07;;;;;;;11.63;9.40;;;21.70;81.00;;;24.55;52.29;101581.63;5049362;28;20611;-58
2023/07/14 07:44:34;;;;;;;10.03;8.00;;;21.80;81.50;;;24.56;51.64;101580.53;5053825;28;20244;-58
2023/07/14 07:47:01;;;;;;;9.80;8.90;;;21.80;81.60;;;24.59;51.96;101582.75;5056385;28;20277;-60
2023/07/14 07:49:29;;;;;;;8.87;7.97;;;21.80;81.80;;;24.57;51.01;101579.50;5055996;28;20328;-57
2023/07/14 07:51:56;;;;;;;18.03;9.30;;;21.80;79.50;;;24.53;50.82;101575.69;5055964;28;20663;-59
2023/07/14 07:54:23;;;;;;;7.33;6.63;;;21.80;79.30;;;24.65;51.11;101576.41;5055077;28;20196;-60
2023/07/14 07:56:50;;;;;;;10.43;8.43;;;21.90;80.00;;;24.73;51.01;101573.25;5055701;28;20202;-60
2023/07/14 07:59:17;;;;;;;9.90;6.70;;;21.90;80.40;;;24.87;51.45;101572.72;5044005;28;20233;-57
2023/07/14 08:01:47;;;;;;;11.63;7.57;;;22.00;81.30;;;25.04;51.97;101575.34;5043580;28;20230;-58
2023/07/14 08:04:18;;;;;;;10.57;8.47;;;22.10;81.70;;;25.17;50.84;101569.63;5039424;28;20195;-58
2023/07/14 08:06:47;;;;;;;10.27;7.93;;;22.20;80.70;;;25.22;51.19;101572.34;5036241;28;20167;-59
2023/07/14 08:09:14;;;;;;;8.07;7.30;;;22.30;80.40;;;25.32;51.07;101569.78;5035589;28;20246;-59
2023/07/14 08:11:41;;;;;;;8.10;7.03;;;22.40;80.30;;;25.45;50.04;101572.13;5035917;28;20240;-58
2023/07/14 08:14:17;;;;;;;11.90;6.60;;;22.50;79.70;;;25.47;49.32;101569.19;5036062;28;20197;-58
2023/07/14 08:16:45;;;;;;;14.50;7.70;;;22.60;78.70;;;25.81;48.90;101580.59;5053678;28;20186;-54
2023/07/14 08:19:15;;;;;;;14.27;7.10;;;22.70;78.40;;;26.58;47.90;101565.63;5052499;28;20740;-58
2023/07/14 08:21:42;;;;;;;5.87;4.77;;;22.90;78.80;;;27.53;46.09;101562.63;5055608;28;20229;-59
2023/07/14 08:24:11;;;;;;;7.60;4.73;;;23.30;77.70;;;28.65;43.34;101561.63;5052020;28;20245;-60
2023/07/14 08:26:40;;;;;;;7.33;5.43;;;23.70;75.00;;;29.73;41.07;101563.63;5054216;28;20194;-59
2023/07/14 08:29:08;;;;;;;5.83;4.60;;;24.40;74.30;;;30.46;38.57;101561.72;5051352;28;20214;-59
2023/07/14 08:31:35;;;;;;;6.97;4.73;;;25.00;69.10;;;31.05;37.38;101569.53;5054825;28;20289;-59
2023/07/14 08:34:04;;;;;;;6.03;5.43;;;25.60;67.60;;;31.64;36.59;101556.22;5041707;28;20260;-60
2023/07/14 08:36:31;;;;;;;4.37;3.97;;;26.30;67.30;;;32.39;34.56;101556.13;5045030;28;20202;-58
2023/07/14 08:38:58;;;;;;;5.63;3.87;;;26.70;62.20;;;32.75;33.38;101554.38;5039768;28;20646;-58
2023/07/14 08:41:30;;;;;;;4.10;3.67;;;27.30;59.90;;;33.23;32.49;101558.34;5052883;28;20240;-59
2023/07/14 08:44:23;;;;;;;4.67;3.67;;;27.70;58.00;;;33.76;31.01;101560.41;5049496;28;20202;-58
2023/07/14 08:47:06;;;;;;;4.77;3.90;;;28.20;56.60;;;33.75;30.32;101556.09;5042444;28;20194;-58
2023/07/14 08:49:46;;;;;;;4.73;3.70;;;28.50;54.80;;;33.63;31.77;101555.81;5053447;28;20674;-57
2023/07/14 08:52:22;;;;;;;4.70;3.57;;;28.70;55.30;;;33.58;32.08;101555.94;5046259;28;20671;-59
2023/07/14 08:54:57;;;;;;;4.97;4.47;;;28.90;55.40;;;33.59;32.00;101552.88;5053520;28;20692;-58
2023/07/14 08:57:28;;;;;;;6.00;4.17;;;29.00;55.00;;;33.73;31.21;101552.88;5049291;28;20202;-59
2023/07/14 09:00:03;;;;;;;4.77;4.20;;;29.00;52.90;;;33.56;31.68;101552.72;5037082;28;20207;-58
2023/07/14 09:02:38;;;;;;;4.03;3.63;;;29.00;53.10;;;33.24;31.17;101540.00;5043657;28;20214;-59
2023/07/14 09:05:16;;;;;;;4.97;3.77;;;29.00;51.90;;;32.96;31.92;101541.94;5055031;28;20196;-58
2023/07/14 09:07:45;;;;;;;6.97;3.60;;;29.00;52.80;;;32.76;31.28;101540.44;5054481;28;20186;-59
2023/07/14 09:10:12;;;;;;;5.63;3.70;;;28.80;52.00;;;32.36;32.94;101524.00;5053957;28;20226;-59
2023/07/14 09:12:53;;;;;;;3.87;3.40;;;28.60;52.70;;;32.04;33.25;101531.13;5054195;28;20186;-59
2023/07/14 09:15:25;;;;;;;6.37;3.17;;;28.60;53.70;;;31.67;34.31;101528.41;5052858;28;20534;-61
2023/07/14 09:18:11;;;;;;;4.10;3.70;;;28.40;53.90;;;31.34;34.23;101534.88;5054127;28;20273;-57
2023/07/14 09:20:59;;;;;;;3.87;3.37;;;28.10;54.40;;;31.10;35.25;101534.91;5053933;28;20217;-60
2023/07/14 09:24:04;;;;;;;3.03;2.70;;;27.80;54.90;;;30.71;32.67;101526.91;5050066;28;20241;-59
2023/07/14 09:26:36;;;;;;;6.37;3.03;;;27.60;52.30;;;30.43;33.89;101526.97;5054690;28;20284;-57
2023/07/14 09:29:14;;;;;;;4.50;3.20;;;27.40;53.00;;;30.49;34.30;101528.53;5053378;28;20570;-59
2023/07/14 09:31:51;;;;;;;5.20;3.27;;;27.30;53.50;;;30.39;34.33;101518.56;5053033;28;20227;-60
2023/07/14 09:34:30;;;;;;;5.57;3.23;;;27.20;54.40;;;30.11;34.83;101516.66;5045152;28;20201;-59
2023/07/14 09:36:58;;;;;;;4.17;3.00;;;27.00;54.20;;;29.68;35.38;101518.31;5044018;28;20706;-61
2023/07/14 09:39:33;;;;;;;4.37;3.60;;;26.90;54.60;;;29.26;36.37;101524.25;5044255;28;20264;-59
2023/07/14 09:42:06;;;;;;;4.53;3.07;;;26.70;55.10;;;28.97;37.03;101523.31;5054521;28;20213;-59
2023/07/14 09:44:35;;;;;;;4.43;2.87;;;26.40;55.80;;;29.29;36.39;101512.84;5037294;28;20206;-58
2023/07/14 09:47:04;;;;;;;3.80;2.73;;;26.20;56.40;;;29.56;35.37;101514.31;5033708;28;20603;-59
2023/07/14 09:49:40;;;;;;;5.30;2.60;;;26.20;55.40;;;29.37;34.69;101501.44;5049773;28;20245;-59
2023/07/14 09:52:26;;;;;;;8.17;3.40;;;26.20;55.30;;;29.04;36.02;101504.84;5045274;28;20240;-60
2023/07/14 09:55:00;;;;;;;2.50;2.30;;;26.10;55.10;;;28.82;36.47;101496.25;5038893;28;20218;-58
2023/07/14 09:57:32;;;;;;;3.20;2.60;;;26.10;55.60;;;28.73;36.60;101492.47;5033669;28;20198;-60
2023/07/14 10:00:20;;;;;;;4.03;2.73;;;26.00;55.80;;;28.51;36.60;101486.56;5035626;28;20276;-59
2023/07/14 10:03:10;;;;;;;3.07;2.20;;;25.90;55.60;;;28.28;37.40;101492.56;5054169;28;20296;-61
2023/07/14 10:06:13;;;;;;;5.70;2.40;;;25.80;56.30;;;28.27;37.71;101485.50;5034273;28;20562;-62
2023/07/14 10:08:49;;;;;;;4.23;2.43;;;25.70;57.40;;;28.54;37.42;101480.59;5041329;28;20217;-59
2023/07/14 10:11:24;;;;;;;4.83;4.43;;;25.60;57.20;;;28.99;37.29;101477.72;5045232;28;20214;-59
2023/07/14 10:13:59;;;;;;;4.47;2.93;;;25.70;57.50;;;30.03;34.79;101465.63;5042360;28;20189;-61
2023/07/14 10:16:32;;;;;;;2.70;2.50;;;25.80;56.00;;;30.45;33.31;101463.03;5047649;28;20646;-60
2023/07/14 10:19:11;;;;;;;3.97;2.80;;;26.20;55.30;;;30.77;33.00;101455.06;5048106;28;20232;-59
2023/07/14 10:21:53;;;;;;;4.53;2.80;;;26.50;54.00;;;30.56;33.33;101456.41;5050454;28;20700;-59